sensor_id;sensor_type;location;lat;lon;timestamp;pressure;altitude;pressure_sealevel;temperature;humidity
68793;BME280;55778;54.346;10.210;2023-07-13T00:01:19;100783.88;;;15.29;100.00
68793;BME280;55778;54.346;10.210;2023-07-13T00:03:44;100777.00;;;15.25;100.00
68793;BME280;55778;54.346;10.210;2023-07-13T00:06:09;100782.66;;;15.24;100.00
68793;BME280;55778;54.346;10.210;2023-07-13T00:08:35;100782.53;;;15.17;100.00
68793;BME280;55778;54.346;10.210;2023-07-13T00:11:01;100778.22;;;15.23;100.00
68793;BME280;55778;54.346;10.210;2023-07-13T00:13:28;100784.22;;;15.18;100.00
68793;BME280;55778;54.346;10.210;2023-07-13T00:15:54;100784.75;;;15.14;100.00
68793;BME280;55778;54.346;10.210;2023-07-13T00:18:21;100790.41;;;15.04;100.00
68793;BME280;55778;54.346;10.210;2023-07-13T00:20:47;100789.91;;;15.09;100.00
68793;BME280;55778;54.346;10.210;2023-07-13T00:23:12;100784.94;;;15.12;100.00
68793;BME280;55778;54.346;10.210;2023-07-13T00:25:37;100785.44;;;15.08;100.00
68793;BME280;55778;54.346;10.210;2023-07-13T00:28:03;100787.66;;;15.04;100.00
68793;BME280;55778;54.346;10.210;2023-07-13T00:30:29;100782.38;;;15.03;100.00
68793;BME280;55778;54.346;10.210;2023-07-13T00:32:54;100781.00;;;14.99;100.00
68793;BME280;55778;54.346;10.210;2023-07-13T00:35:19;100778.59;;;14.96;100.00
68793;BME280;55778;54.346;10.210;2023-07-13T00:37:45;100776.22;;;15.01;100.00
68793;BME280;55778;54.346;10.210;2023-07-13T00:40:12;100772.41;;;15.02;100.00
68793;BME280;55778;54.346;10.210;2023-07-13T00:42:38;100770.88;;;14.99;100.00
68793;BME280;55778;54.346;10.210;2023-07-13T00:47:33;100777.59;;;14.97;100.00
68793;BME280;55778;54.346;10.210;2023-07-13T00:49:59;100775.69;;;14.97;100.00
68793;BME280;55778;54.346;10.210;2023-07-13T00:52:24;100778.94;;;14.93;100.00
68793;BME280;55778;54.346;10.210;2023-07-13T00:54:50;100781.19;;;14.97;100.00
68793;BME280;55778;54.346;10.210;2023-07-13T00:57:19;100780.00;;;15.00;100.00
68793;BME280;55778;54.346;10.210;2023-07-13T00:59:48;100776.34;;;15.07;100.00
68793;BME280;55778;54.346;10.210;2023-07-13T01:02:15;100777.56;;;15.05;100.00
68793;BME280;55778;54.346;10.210;2023-07-13T01:04:41;100767.06;;;15.16;100.00
68793;BME280;55778;54.346;10.210;2023-07-13T01:07:10;100771.56;;;15.09;100.00
68793;BME280;55778;54.346;10.210;2023-07-13T01:09:36;100776.69;;;15.12;100.00
68793;BME280;55778;54.346;10.210;2023-07-13T01:12:02;100775.81;;;15.12;100.00
68793;BME280;55778;54.346;10.210;2023-07-13T01:14:28;100771.91;;;15.14;100.00
68793;BME280;55778;54.346;10.210;2023-07-13T01:16:54;100772.06;;;15.13;100.00
68793;BME280;55778;54.346;10.210;2023-07-13T01:21:55;100775.34;;;15.08;100.00
68793;BME280;55778;54.346;10.210;2023-07-13T01:24:20;100779.66;;;15.03;100.00
68793;BME280;55778;54.346;10.210;2023-07-13T01:26:46;100781.88;;;14.99;100.00
68793;BME280;55778;54.346;10.210;2023-07-13T01:29:11;100783.44;;;14.94;100.00
68793;BME280;55778;54.346;10.210;2023-07-13T01:31:37;100785.13;;;14.95;100.00
68793;BME280;55778;54.346;10.210;2023-07-13T01:34:02;100778.47;;;14.89;100.00
68793;BME280;55778;54.346;10.210;2023-07-13T01:36:27;100781.03;;;14.91;100.00
68793;BME280;55778;54.346;10.210;2023-07-13T01:38:53;100785.66;;;14.90;100.00
68793;BME280;55778;54.346;10.210;2023-07-13T01:41:18;100778.47;;;14.89;100.00
68793;BME280;55778;54.346;10.210;2023-07-13T01:43:43;100778.63;;;14.88;100.00
68793;BME280;55778;54.346;10.210;2023-07-13T01:46:09;100784.47;;;14.85;100.00
68793;BME280;55778;54.346;10.210;2023-07-13T01:48:34;100777.41;;;14.82;100.00
68793;BME280;55778;54.346;10.210;2023-07-13T01:51:00;100778.63;;;14.88;100.00
68793;BME280;55778;54.346;10.210;2023-07-13T01:53:25;100782.56;;;14.85;100.00
68793;BME280;55778;54.346;10.210;2023-07-13T01:55:50;100773.84;;;14.82;100.00
68793;BME280;55778;54.346;10.210;2023-07-13T01:58:16;100765.78;;;14.80;100.00
68793;BME280;55778;54.346;10.210;2023-07-13T02:00:41;100764.22;;;14.86;100.00
68793;BME280;55778;54.346;10.210;2023-07-13T02:03:06;100764.75;;;14.89;100.00
68793;BME280;55778;54.346;10.210;2023-07-13T02:05:32;100761.81;;;14.83;100.00
68793;BME280;55778;54.346;10.210;2023-07-13T02:07:57;100771.09;;;14.82;100.00
68793;BME280;55778;54.346;10.210;2023-07-13T02:10:23;100771.91;;;14.82;100.00
68793;BME280;55778;54.346;10.210;2023-07-13T02:12:49;100772.09;;;14.81;100.00
68793;BME280;55778;54.346;10.210;2023-07-13T02:15:15;100765.94;;;14.79;100.00
68793;BME280;55778;54.346;10.210;2023-07-13T02:17:41;100765.25;;;14.77;100.00
68793;BME280;55778;54.346;10.210;2023-07-13T02:20:07;100780.34;;;14.73;100.00
68793;BME280;55778;54.346;10.210;2023-07-13T02:22:33;100772.94;;;14.73;100.00
68793;BME280;55778;54.346;10.210;2023-07-13T02:24:58;100764.56;;;14.75;100.00
68793;BME280;55778;54.346;10.210;2023-07-13T02:27:24;100768.38;;;14.66;100.00
68793;BME280;55778;54.346;10.210;2023-07-13T02:29:49;100772.47;;;14.70;100.00
68793;BME280;55778;54.346;10.210;2023-07-13T02:32:17;100762.00;;;14.65;100.00
68793;BME280;55778;54.346;10.210;2023-07-13T02:34:42;100770.91;;;14.67;100.00
68793;BME280;55778;54.346;10.210;2023-07-13T02:37:08;100765.41;;;14.67;100.00
68793;BME280;55778;54.346;10.210;2023-07-13T02:39:33;100768.53;;;14.64;100.00
68793;BME280;55778;54.346;10.210;2023-07-13T02:41:59;100759.59;;;14.70;100.00
68793;BME280;55778;54.346;10.210;2023-07-13T02:44:25;100752.25;;;14.63;100.00
68793;BME280;55778;54.346;10.210;2023-07-13T02:46:51;100748.13;;;14.67;100.00
68793;BME280;55778;54.346;10.210;2023-07-13T02:49:16;100745.69;;;14.72;100.00
68793;BME280;55778;54.346;10.210;2023-07-13T02:51:42;100741.78;;;14.74;100.00
68793;BME280;55778;54.346;10.210;2023-07-13T02:54:09;100743.81;;;14.72;100.00
68793;BME280;55778;54.346;10.210;2023-07-13T02:56:35;100735.94;;;14.77;100.00
68793;BME280;55778;54.346;10.210;2023-07-13T02:59:00;100738.84;;;14.76;100.00
68793;BME280;55778;54.346;10.210;2023-07-13T03:01:26;100741.91;;;14.81;100.00
68793;BME280;55778;54.346;10.210;2023-07-13T03:03:52;100741.91;;;14.81;100.00
68793;BME280;55778;54.346;10.210;2023-07-13T03:06:18;100742.97;;;14.80;100.00
68793;BME280;55778;54.346;10.210;2023-07-13T03:08:44;100738.84;;;14.76;100.00
68793;BME280;55778;54.346;10.210;2023-07-13T03:11:12;100743.47;;;14.75;100.00
68793;BME280;55778;54.346;10.210;2023-07-13T03:13:39;100742.78;;;14.81;100.00
68793;BME280;55778;54.346;10.210;2023-07-13T03:16:06;100738.00;;;14.83;100.00
68793;BME280;55778;54.346;10.210;2023-07-13T03:18:31;100738.81;;;14.84;100.00
68793;BME280;55778;54.346;10.210;2023-07-13T03:20:57;100747.94;;;14.84;100.00
68793;BME280;55778;54.346;10.210;2023-07-13T03:23:23;100749.81;;;14.84;100.00
68793;BME280;55778;54.346;10.210;2023-07-13T03:25:50;100748.44;;;14.80;100.00
68793;BME280;55778;54.346;10.210;2023-07-13T03:28:15;100744.31;;;14.84;100.00
68793;BME280;55778;54.346;10.210;2023-07-13T03:30:41;100747.41;;;14.89;100.00
68793;BME280;55778;54.346;10.210;2023-07-13T03:33:07;100748.78;;;14.85;100.00
68793;BME280;55778;54.346;10.210;2023-07-13T03:35:33;100751.53;;;14.85;100.00
68793;BME280;55778;54.346;10.210;2023-07-13T03:37:59;100746.53;;;14.88;100.00
68793;BME280;55778;54.346;10.210;2023-07-13T03:40:26;100746.38;;;14.90;100.00
68793;BME280;55778;54.346;10.210;2023-07-13T03:42:52;100742.63;;;14.91;100.00
68793;BME280;55778;54.346;10.210;2023-07-13T03:45:18;100741.56;;;14.92;100.00
68793;BME280;55778;54.346;10.210;2023-07-13T03:47:44;100742.44;;;14.92;100.00
68793;BME280;55778;54.346;10.210;2023-07-13T03:50:10;100754.78;;;14.96;100.00
68793;BME280;55778;54.346;10.210;2023-07-13T03:52:35;100751.69;;;14.99;100.00
68793;BME280;55778;54.346;10.210;2023-07-13T03:55:01;100757.16;;;14.99;100.00
68793;BME280;55778;54.346;10.210;2023-07-13T03:57:26;100757.69;;;15.03;100.00
68793;BME280;55778;54.346;10.210;2023-07-13T03:59:52;100757.31;;;15.06;100.00
68793;BME280;55778;54.346;10.210;2023-07-13T04:02:17;100754.72;;;15.12;100.00
68793;BME280;55778;54.346;10.210;2023-07-13T04:04:43;100761.09;;;15.13;100.00
68793;BME280;55778;54.346;10.210;2023-07-13T04:07:08;100766.41;;;15.14;100.00
68793;BME280;55778;54.346;10.210;2023-07-13T04:09:35;100774.78;;;15.21;100.00
68793;BME280;55778;54.346;10.210;2023-07-13T04:12:00;100762.09;;;15.20;100.00
68793;BME280;55778;54.346;10.210;2023-07-13T04:14:25;100765.00;;;15.26;100.00
68793;BME280;55778;54.346;10.210;2023-07-13T04:16:51;100771.69;;;15.32;100.00
68793;BME280;55778;54.346;10.210;2023-07-13T04:19:17;100773.75;;;15.38;100.00
68793;BME280;55778;54.346;10.210;2023-07-13T04:21:42;100764.81;;;15.44;100.00
68793;BME280;55778;54.346;10.210;2023-07-13T04:24:08;100764.94;;;15.50;100.00
68793;BME280;55778;54.346;10.210;2023-07-13T04:26:34;100767.84;;;15.57;100.00
68793;BME280;55778;54.346;10.210;2023-07-13T04:29:02;100759.94;;;15.62;100.00
68793;BME280;55778;54.346;10.210;2023-07-13T04:31:29;100770.25;;;15.60;100.00
68793;BME280;55778;54.346;10.210;2023-07-13T04:33:54;100772.81;;;15.61;100.00
68793;BME280;55778;54.346;10.210;2023-07-13T04:36:20;100761.09;;;15.67;100.00
68793;BME280;55778;54.346;10.210;2023-07-13T04:38:45;100762.34;;;15.65;100.00
68793;BME280;55778;54.346;10.210;2023-07-13T04:41:12;100767.81;;;15.65;100.00
68793;BME280;55778;54.346;10.210;2023-07-13T04:43:37;100759.59;;;15.65;100.00
68793;BME280;55778;54.346;10.210;2023-07-13T04:46:07;100763.69;;;15.69;100.00
68793;BME280;55778;54.346;10.210;2023-07-13T04:48:33;100773.09;;;15.74;100.00
68793;BME280;55778;54.346;10.210;2023-07-13T04:50:59;100768.81;;;15.72;100.00
68793;BME280;55778;54.346;10.210;2023-07-13T04:53:26;100766.75;;;15.74;100.00
68793;BME280;55778;54.346;10.210;2023-07-13T04:55:52;100767.13;;;15.71;100.00
68793;BME280;55778;54.346;10.210;2023-07-13T04:58:18;100768.09;;;15.78;100.00
68793;BME280;55778;54.346;10.210;2023-07-13T05:00:43;100780.44;;;15.82;100.00
68793;BME280;55778;54.346;10.210;2023-07-13T05:03:09;100773.94;;;15.75;100.00
68793;BME280;55778;54.346;10.210;2023-07-13T05:05:34;100782.56;;;15.72;100.00
68793;BME280;55778;54.346;10.210;2023-07-13T05:08:00;100789.97;;;16.02;100.00
68793;BME280;55778;54.346;10.210;2023-07-13T05:10:25;100778.19;;;16.16;100.00
68793;BME280;55778;54.346;10.210;2023-07-13T05:12:50;100792.91;;;16.23;100.00
68793;BME280;55778;54.346;10.210;2023-07-13T05:15:16;100779.31;;;16.30;100.00
68793;BME280;55778;54.346;10.210;2023-07-13T05:17:46;100792.13;;;16.45;100.00
68793;BME280;55778;54.346;10.210;2023-07-13T05:20:12;100777.56;;;16.59;100.00
68793;BME280;55778;54.346;10.210;2023-07-13T05:22:37;100782.84;;;16.69;100.00
68793;BME280;55778;54.346;10.210;2023-07-13T05:25:04;100786.56;;;16.76;100.00
68793;BME280;55778;54.346;10.210;2023-07-13T05:27:30;100785.84;;;16.96;100.00
68793;BME280;55778;54.346;10.210;2023-07-13T05:29:56;100797.91;;;16.95;100.00
68793;BME280;55778;54.346;10.210;2023-07-13T05:32:21;100798.00;;;17.02;100.00
68793;BME280;55778;54.346;10.210;2023-07-13T05:34:47;100800.34;;;16.90;100.00
68793;BME280;55778;54.346;10.210;2023-07-13T05:37:12;100803.06;;;16.98;100.00
68793;BME280;55778;54.346;10.210;2023-07-13T05:39:37;100800.28;;;16.98;100.00
68793;BME280;55778;54.346;10.210;2023-07-13T05:42:03;100802.88;;;17.00;100.00
68793;BME280;55778;54.346;10.210;2023-07-13T05:44:29;100815.53;;;16.86;100.00
68793;BME280;55778;54.346;10.210;2023-07-13T05:46:54;100814.53;;;17.02;100.00
68793;BME280;55778;54.346;10.210;2023-07-13T05:49:22;100812.38;;;17.12;100.00
68793;BME280;55778;54.346;10.210;2023-07-13T05:51:47;100804.75;;;16.99;100.00
68793;BME280;55778;54.346;10.210;2023-07-13T05:54:13;100817.84;;;16.97;100.00
68793;BME280;55778;54.346;10.210;2023-07-13T05:56:38;100811.03;;;17.08;100.00
68793;BME280;55778;54.346;10.210;2023-07-13T05:59:04;100820.16;;;17.08;100.00
68793;BME280;55778;54.346;10.210;2023-07-13T06:01:30;100813.53;;;17.17;100.00
68793;BME280;55778;54.346;10.210;2023-07-13T06:03:56;100813.13;;;17.06;100.00
68793;BME280;55778;54.346;10.210;2023-07-13T06:06:21;100803.75;;;17.15;100.00
68793;BME280;55778;54.346;10.210;2023-07-13T06:08:47;100810.91;;;17.38;100.00
68793;BME280;55778;54.346;10.210;2023-07-13T06:11:16;100805.78;;;17.35;100.00
68793;BME280;55778;54.346;10.210;2023-07-13T06:13:41;100809.47;;;17.42;100.00
68793;BME280;55778;54.346;10.210;2023-07-13T06:16:07;100804.69;;;17.44;100.00
68793;BME280;55778;54.346;10.210;2023-07-13T06:18:34;100802.69;;;17.53;100.00
68793;BME280;55778;54.346;10.210;2023-07-13T06:21:00;100805.94;;;17.56;100.00
68793;BME280;55778;54.346;10.210;2023-07-13T06:23:26;100803.28;;;17.40;100.00
68793;BME280;55778;54.346;10.210;2023-07-13T06:25:51;100812.09;;;17.58;100.00
68793;BME280;55778;54.346;10.210;2023-07-13T06:28:17;100805.72;;;17.72;100.00
68793;BME280;55778;54.346;10.210;2023-07-13T06:30:42;100805.34;;;17.75;100.00
68793;BME280;55778;54.346;10.210;2023-07-13T06:33:07;100804.22;;;17.84;100.00
68793;BME280;55778;54.346;10.210;2023-07-13T06:35:33;100811.69;;;17.76;100.00
68793;BME280;55778;54.346;10.210;2023-07-13T06:37:59;100805.16;;;17.77;100.00
68793;BME280;55778;54.346;10.210;2023-07-13T06:40:24;100813.69;;;17.82;100.00
68793;BME280;55778;54.346;10.210;2023-07-13T06:42:49;100812.75;;;17.89;100.00
68793;BME280;55778;54.346;10.210;2023-07-13T06:45:15;100831.66;;;17.92;100.00
68793;BME280;55778;54.346;10.210;2023-07-13T06:47:40;100826.25;;;17.99;100.00
68793;BME280;55778;54.346;10.210;2023-07-13T06:50:06;100835.75;;;17.97;100.00
68793;BME280;55778;54.346;10.210;2023-07-13T06:52:32;100830.50;;;18.02;100.00
68793;BME280;55778;54.346;10.210;2023-07-13T06:54:57;100829.75;;;18.08;100.00
68793;BME280;55778;54.346;10.210;2023-07-13T06:57:23;100833.25;;;18.16;100.00
68793;BME280;55778;54.346;10.210;2023-07-13T06:59:48;100837.06;;;18.15;100.00
68793;BME280;55778;54.346;10.210;2023-07-13T07:02:13;100829.75;;;18.08;100.00
68793;BME280;55778;54.346;10.210;2023-07-13T07:04:39;100834.84;;;18.25;100.00
68793;BME280;55778;54.346;10.210;2023-07-13T07:07:04;100831.63;;;18.22;100.00
68793;BME280;55778;54.346;10.210;2023-07-13T07:09:29;100823.66;;;18.83;100.00
68793;BME280;55778;54.346;10.210;2023-07-13T07:11:56;100823.84;;;18.82;100.00
68793;BME280;55778;54.346;10.210;2023-07-13T07:14:22;100819.56;;;18.58;100.00
68793;BME280;55778;54.346;10.210;2023-07-13T07:16:47;100820.22;;;19.02;100.00
68793;BME280;55778;54.346;10.210;2023-07-13T07:19:13;100820.59;;;18.99;99.53
68793;BME280;55778;54.346;10.210;2023-07-13T07:21:38;100821.59;;;18.92;100.00
68793;BME280;55778;54.346;10.210;2023-07-13T07:24:04;100812.16;;;19.56;96.30
68793;BME280;55778;54.346;10.210;2023-07-13T07:26:30;100809.41;;;19.56;95.23
68793;BME280;55778;54.346;10.210;2023-07-13T07:28:55;100815.78;;;19.91;92.83
68793;BME280;55778;54.346;10.210;2023-07-13T07:31:21;100817.13;;;20.08;90.00
68793;BME280;55778;54.346;10.210;2023-07-13T07:33:46;100816.75;;;19.42;93.65
68793;BME280;55778;54.346;10.210;2023-07-13T07:36:11;100819.09;;;19.73;93.18
68793;BME280;55778;54.346;10.210;2023-07-13T07:38:37;100824.19;;;20.10;91.79
68793;BME280;55778;54.346;10.210;2023-07-13T07:41:05;100814.56;;;20.00;91.19
68793;BME280;55778;54.346;10.210;2023-07-13T07:43:31;100818.03;;;20.62;87.63
68793;BME280;55778;54.346;10.210;2023-07-13T07:45:57;100812.16;;;21.10;83.09
68793;BME280;55778;54.346;10.210;2023-07-13T07:48:22;100811.75;;;21.20;81.23
68793;BME280;55778;54.346;10.210;2023-07-13T07:50:48;100809.53;;;20.76;82.78
68793;BME280;55778;54.346;10.210;2023-07-13T07:53:13;100812.16;;;20.97;82.61
68793;BME280;55778;54.346;10.210;2023-07-13T07:55:39;100815.78;;;21.17;80.86
68793;BME280;55778;54.346;10.210;2023-07-13T07:58:05;100801.22;;;21.67;78.23
68793;BME280;55778;54.346;10.210;2023-07-13T08:00:31;100808.91;;;21.65;77.74
68793;BME280;55778;54.346;10.210;2023-07-13T08:02:58;100796.50;;;21.88;76.57
68793;BME280;55778;54.346;10.210;2023-07-13T08:05:23;100804.78;;;22.45;72.59
68793;BME280;55778;54.346;10.210;2023-07-13T08:07:49;100800.41;;;22.24;72.36
68793;BME280;55778;54.346;10.210;2023-07-13T08:10:15;100799.97;;;22.27;72.96
68793;BME280;55778;54.346;10.210;2023-07-13T08:12:40;100790.16;;;22.69;70.35
68793;BME280;55778;54.346;10.210;2023-07-13T08:15:10;100785.59;;;22.81;68.25
68793;BME280;55778;54.346;10.210;2023-07-13T08:17:36;100788.19;;;21.94;71.67
68793;BME280;55778;54.346;10.210;2023-07-13T08:20:01;100795.22;;;21.90;69.89
68793;BME280;55778;54.346;10.210;2023-07-13T08:22:27;100788.06;;;21.11;70.81
68793;BME280;55778;54.346;10.210;2023-07-13T08:24:53;100801.28;;;20.16;81.40
68793;BME280;55778;54.346;10.210;2023-07-13T08:27:25;100811.41;;;19.41;95.75
68793;BME280;55778;54.346;10.210;2023-07-13T08:29:50;100813.00;;;18.80;100.00
68793;BME280;55778;54.346;10.210;2023-07-13T08:32:17;100823.81;;;18.61;100.00
68793;BME280;55778;54.346;10.210;2023-07-13T08:34:43;100833.22;;;18.31;100.00
68793;BME280;55778;54.346;10.210;2023-07-13T08:37:09;100835.44;;;18.06;100.00
68793;BME280;55778;54.346;10.210;2023-07-13T08:39:34;100836.75;;;18.10;100.00
68793;BME280;55778;54.346;10.210;2023-07-13T08:47:21;100842.31;;;17.81;100.00
68793;BME280;55778;54.346;10.210;2023-07-13T08:49:48;100855.16;;;17.74;100.00
68793;BME280;55778;54.346;10.210;2023-07-13T08:52:28;100870.06;;;17.94;100.00
68793;BME280;55778;54.346;10.210;2023-07-13T08:54:58;100863.13;;;17.98;100.00
68793;BME280;55778;54.346;10.210;2023-07-13T08:57:31;100862.56;;;17.88;100.00
68793;BME280;55778;54.346;10.210;2023-07-13T08:59:58;100872.72;;;17.73;100.00
68793;BME280;55778;54.346;10.210;2023-07-13T09:02:48;100886.47;;;17.21;100.00
68793;BME280;55778;54.346;10.210;2023-07-13T09:10:32;100908.63;;;15.03;100.00
68793;BME280;55778;54.346;10.210;2023-07-13T09:13:39;100905.03;;;15.02;100.00
68793;BME280;55778;54.346;10.210;2023-07-13T09:16:06;100914.09;;;14.87;100.00
68793;BME280;55778;54.346;10.210;2023-07-13T09:18:38;100926.63;;;14.89;100.00
68793;BME280;55778;54.346;10.210;2023-07-13T09:21:12;100904.84;;;14.96;100.00
68793;BME280;55778;54.346;10.210;2023-07-13T09:23:39;100904.84;;;15.12;100.00
68793;BME280;55778;54.346;10.210;2023-07-13T09:26:14;100913.94;;;15.28;100.00
68793;BME280;55778;54.346;10.210;2023-07-13T09:28:43;100920.75;;;15.88;100.00
68793;BME280;55778;54.346;10.210;2023-07-13T09:31:14;100918.16;;;16.34;100.00
68793;BME280;55778;54.346;10.210;2023-07-13T09:33:40;100921.47;;;16.90;100.00
68793;BME280;55778;54.346;10.210;2023-07-13T09:36:20;100909.69;;;17.04;100.00
68793;BME280;55778;54.346;10.210;2023-07-13T09:38:48;100908.44;;;17.52;100.00
68793;BME280;55778;54.346;10.210;2023-07-13T09:41:21;100912.09;;;18.11;100.00
68793;BME280;55778;54.346;10.210;2023-07-13T09:44:02;100903.09;;;18.02;100.00
68793;BME280;55778;54.346;10.210;2023-07-13T09:46:27;100900.88;;;18.41;100.00
68793;BME280;55778;54.346;10.210;2023-07-13T09:48:52;100906.72;;;18.67;100.00
68793;BME280;55778;54.346;10.210;2023-07-13T09:51:18;100906.03;;;19.01;100.00
68793;BME280;55778;54.346;10.210;2023-07-13T09:53:44;100894.53;;;19.39;100.00
68793;BME280;55778;54.346;10.210;2023-07-13T09:56:23;100882.91;;;19.71;100.00
68793;BME280;55778;54.346;10.210;2023-07-13T09:58:49;100869.91;;;20.00;100.00
68793;BME280;55778;54.346;10.210;2023-07-13T10:01:15;100867.16;;;20.06;100.00
68793;BME280;55778;54.346;10.210;2023-07-13T10:03:52;100842.78;;;20.16;100.00
68793;BME280;55778;54.346;10.210;2023-07-13T10:06:20;100838.78;;;20.32;100.00
68793;BME280;55778;54.346;10.210;2023-07-13T10:08:48;100841.16;;;20.35;100.00
68793;BME280;55778;54.346;10.210;2023-07-13T10:11:27;100828.00;;;20.09;100.00
68793;BME280;55778;54.346;10.210;2023-07-13T10:14:02;100835.44;;;20.49;100.00
68793;BME280;55778;54.346;10.210;2023-07-13T10:16:33;100841.38;;;20.40;100.00
68793;BME280;55778;54.346;10.210;2023-07-13T10:19:21;100829.44;;;19.99;100.00
68793;BME280;55778;54.346;10.210;2023-07-13T10:24:20;100878.25;;;18.67;100.00
68793;BME280;55778;54.346;10.210;2023-07-13T10:26:52;100888.53;;;18.08;100.00
68793;BME280;55778;54.346;10.210;2023-07-13T10:29:20;100895.06;;;17.78;100.00
68793;BME280;55778;54.346;10.210;2023-07-13T10:31:47;100901.88;;;17.53;100.00
68793;BME280;55778;54.346;10.210;2023-07-13T10:34:13;100899.69;;;17.48;100.00
68793;BME280;55778;54.346;10.210;2023-07-13T10:36:42;100879.53;;;17.25;100.00
68793;BME280;55778;54.346;10.210;2023-07-13T10:39:15;100881.47;;;17.47;100.00
68793;BME280;55778;54.346;10.210;2023-07-13T10:41:42;100888.91;;;17.91;100.00
68793;BME280;55778;54.346;10.210;2023-07-13T10:44:25;100862.25;;;18.27;100.00
68793;BME280;55778;54.346;10.210;2023-07-13T10:46:54;100856.06;;;18.39;100.00
68793;BME280;55778;54.346;10.210;2023-07-13T10:49:21;100855.75;;;18.49;100.00
68793;BME280;55778;54.346;10.210;2023-07-13T10:51:48;100857.34;;;18.58;100.00
68793;BME280;55778;54.346;10.210;2023-07-13T10:54:39;100853.75;;;18.78;100.00
68793;BME280;55778;54.346;10.210;2023-07-13T10:57:20;100851.25;;;18.83;99.83
68793;BME280;55778;54.346;10.210;2023-07-13T10:59:48;100850.16;;;18.99;99.59
68793;BME280;55778;54.346;10.210;2023-07-13T11:02:36;100849.09;;;19.21;97.50
68793;BME280;55778;54.346;10.210;2023-07-13T11:05:20;100845.50;;;19.82;94.22
68793;BME280;55778;54.346;10.210;2023-07-13T11:07:54;100856.41;;;20.24;90.68
68793;BME280;55778;54.346;10.210;2023-07-13T11:18:49;100848.38;;;21.02;68.89
68793;BME280;55778;54.346;10.210;2023-07-13T11:21:19;100862.88;;;21.04;70.66
68793;BME280;55778;54.346;10.210;2023-07-13T11:23:55;100850.53;;;21.13;72.65
68793;BME280;55778;54.346;10.210;2023-07-13T11:31:51;100860.13;;;22.59;67.47
68793;BME280;55778;54.346;10.210;2023-07-13T11:34:27;100855.22;;;23.23;64.21
68793;BME280;55778;54.346;10.210;2023-07-13T11:36:53;100852.63;;;23.22;65.29
68793;BME280;55778;54.346;10.210;2023-07-13T11:39:28;100857.63;;;23.69;62.10
68793;BME280;55778;54.346;10.210;2023-07-13T11:41:58;100854.19;;;23.24;63.22
68793;BME280;55778;54.346;10.210;2023-07-13T11:44:26;100859.06;;;23.78;60.19
68793;BME280;55778;54.346;10.210;2023-07-13T11:47:00;100866.72;;;23.58;62.08
68793;BME280;55778;54.346;10.210;2023-07-13T11:49:30;100863.16;;;22.89;65.83
68793;BME280;55778;54.346;10.210;2023-07-13T11:51:57;100876.25;;;22.25;66.07
68793;BME280;55778;54.346;10.210;2023-07-13T11:57:16;100868.47;;;21.63;73.32
68793;BME280;55778;54.346;10.210;2023-07-13T11:59:46;100875.72;;;21.44;71.77
68793;BME280;55778;54.346;10.210;2023-07-13T12:02:39;100886.22;;;20.69;75.19
68793;BME280;55778;54.346;10.210;2023-07-13T12:05:04;100878.75;;;20.70;72.19
68793;BME280;55778;54.346;10.210;2023-07-13T12:07:33;100873.81;;;20.65;67.70
68793;BME280;55778;54.346;10.210;2023-07-13T12:10:02;100880.72;;;20.29;68.75
68793;BME280;55778;54.346;10.210;2023-07-13T12:12:29;100880.78;;;20.08;68.28
68793;BME280;55778;54.346;10.210;2023-07-13T12:14:55;100885.88;;;20.04;68.91
68793;BME280;55778;54.346;10.210;2023-07-13T12:17:22;100885.19;;;20.30;69.57
68793;BME280;55778;54.346;10.210;2023-07-13T12:19:49;100881.16;;;20.32;68.93
68793;BME280;55778;54.346;10.210;2023-07-13T12:22:17;100883.13;;;20.11;65.77
68793;BME280;55778;54.346;10.210;2023-07-13T12:24:43;100887.66;;;19.84;66.40
68793;BME280;55778;54.346;10.210;2023-07-13T12:29:50;100877.38;;;21.06;62.23
68793;BME280;55778;54.346;10.210;2023-07-13T12:32:19;100887.22;;;21.15;63.41
68793;BME280;55778;54.346;10.210;2023-07-13T12:34:53;100881.88;;;21.20;62.70
68793;BME280;55778;54.346;10.210;2023-07-13T12:37:19;100892.63;;;20.76;60.56
68793;BME280;55778;54.346;10.210;2023-07-13T12:39:46;100894.28;;;20.64;61.37
68793;BME280;55778;54.346;10.210;2023-07-13T12:44:57;100890.47;;;20.72;61.56
68793;BME280;55778;54.346;10.210;2023-07-13T12:47:24;100889.19;;;20.68;59.18
68793;BME280;55778;54.346;10.210;2023-07-13T12:49:59;100895.31;;;21.23;61.44
68793;BME280;55778;54.346;10.210;2023-07-13T12:52:31;100906.84;;;21.73;60.27
68793;BME280;55778;54.346;10.210;2023-07-13T12:55:17;100902.81;;;21.88;59.46
68793;BME280;55778;54.346;10.210;2023-07-13T12:57:57;100901.22;;;22.31;58.35
68793;BME280;55778;54.346;10.210;2023-07-13T13:00:28;100907.69;;;21.99;57.47
68793;BME280;55778;54.346;10.210;2023-07-13T13:02:56;100912.16;;;21.67;57.95
68793;BME280;55778;54.346;10.210;2023-07-13T13:05:25;100915.41;;;21.84;59.97
68793;BME280;55778;54.346;10.210;2023-07-13T13:07:51;100918.63;;;21.75;60.22
68793;BME280;55778;54.346;10.210;2023-07-13T13:10:16;100926.03;;;21.28;59.24
68793;BME280;55778;54.346;10.210;2023-07-13T13:12:42;100924.63;;;20.85;61.79
68793;BME280;55778;54.346;10.210;2023-07-13T13:15:08;100920.44;;;20.55;65.05